createdAt,value
2018-05-08T00:00:43.197Z,15.27
2018-05-08T00:01:43.109Z,15.28
2018-05-08T00:02:43.007Z,15.27
2018-05-08T00:03:42.914Z,15.27
2018-05-08T00:04:42.811Z,15.28
2018-05-08T00:05:42.719Z,15.27
2018-05-08T00:06:42.616Z,15.29
2018-05-08T00:07:42.524Z,15.14
2018-05-08T00:08:42.435Z,15.14
2018-05-08T00:09:42.332Z,15.03
2018-05-08T00:10:42.241Z,14.94
2018-05-08T00:11:42.139Z,14.88
2018-05-08T00:12:42.047Z,14.77
2018-05-08T00:13:41.942Z,14.73
2018-05-08T00:14:41.854Z,14.68
2018-05-08T00:15:41.750Z,14.55
2018-05-08T00:16:41.659Z,14.59
2018-05-08T00:17:41.560Z,14.45
2018-05-08T00:18:41.465Z,14.43
2018-05-08T00:19:41.378Z,14.37
2018-05-08T00:20:41.272Z,14.33
2018-05-08T00:21:41.179Z,14.40
2018-05-08T00:22:41.077Z,14.28
2018-05-08T00:23:40.985Z,14.20
2018-05-08T00:24:40.881Z,14.26
2018-05-08T00:25:40.791Z,14.26
2018-05-08T00:26:40.692Z,14.30
2018-05-08T00:27:40.599Z,14.37
2018-05-08T00:28:40.495Z,14.54
2018-05-08T00:29:40.407Z,14.66
2018-05-08T00:30:40.301Z,14.81
2018-05-08T00:31:40.210Z,14.89
2018-05-08T00:32:40.118Z,15.10
2018-05-08T00:33:40.017Z,15.24
2018-05-08T00:34:39.923Z,15.29
2018-05-08T00:35:39.820Z,15.25
2018-05-08T00:36:39.729Z,15.29
2018-05-08T00:37:39.631Z,15.43
2018-05-08T00:38:39.541Z,15.36
2018-05-08T00:39:39.434Z,15.44
2018-05-08T00:40:39.343Z,15.37
2018-05-08T00:41:39.237Z,15.47
2018-05-08T00:42:39.147Z,15.46
2018-05-08T00:43:39.044Z,15.46
2018-05-08T00:44:38.951Z,15.61
2018-05-08T00:45:38.848Z,15.52
2018-05-08T00:46:38.764Z,15.51
2018-05-08T00:47:38.655Z,15.52
2018-05-08T00:48:38.566Z,15.42
2018-05-08T00:49:38.463Z,15.43
2018-05-08T00:50:38.374Z,15.49
2018-05-08T00:51:38.269Z,15.47
2018-05-08T00:52:38.177Z,15.39
2018-05-08T00:53:38.075Z,15.40
2018-05-08T00:54:37.982Z,15.39
2018-05-08T00:55:37.879Z,15.31
2018-05-08T00:56:37.789Z,15.27
2018-05-08T00:57:37.690Z,15.25
2018-05-08T00:58:37.596Z,15.17
2018-05-08T00:59:37.504Z,15.19
2018-05-08T01:00:37.401Z,15.17
2018-05-08T01:01:37.303Z,15.18
2018-05-08T01:02:37.208Z,15.11
2018-05-08T01:03:37.116Z,15.15
2018-05-08T01:04:37.013Z,15.14
2018-05-08T01:05:36.909Z,15.14
2018-05-08T01:06:36.819Z,15.14
2018-05-08T01:07:36.726Z,15.10
2018-05-08T01:08:36.626Z,15.18
2018-05-08T01:09:36.534Z,15.15
2018-05-08T01:10:36.431Z,15.18
2018-05-08T01:11:36.390Z,15.11
2018-05-08T01:12:36.249Z,15.14
2018-05-08T01:13:36.144Z,15.17
2018-05-08T01:14:36.041Z,15.18
2018-05-08T01:15:35.949Z,15.19
2018-05-08T01:16:35.846Z,15.17
2018-05-08T01:17:35.756Z,15.07
2018-05-08T01:18:35.653Z,15.18
2018-05-08T01:19:35.561Z,15.19
2018-05-08T01:20:35.457Z,15.21
2018-05-08T01:21:35.370Z,15.24
2018-05-08T01:22:35.266Z,15.29
2018-05-08T01:23:35.175Z,15.27
2018-05-08T01:24:35.071Z,15.21
2018-05-08T01:25:34.980Z,15.27
2018-05-08T01:26:34.876Z,15.42
2018-05-08T01:27:34.784Z,15.40
2018-05-08T01:28:34.680Z,15.35
2018-05-08T01:29:34.594Z,15.40
2018-05-08T01:30:34.490Z,15.42
2018-05-08T01:31:34.431Z,15.44
2018-05-08T01:32:34.294Z,15.42
2018-05-08T01:33:34.207Z,15.44
2018-05-08T01:34:34.101Z,15.43
2018-05-08T01:35:34.010Z,15.39
2018-05-08T01:36:33.907Z,15.43
2018-05-08T01:37:33.814Z,15.44
2018-05-08T01:38:33.711Z,15.39
2018-05-08T01:39:33.619Z,15.39
2018-05-08T01:40:33.816Z,15.44
2018-05-08T01:41:33.428Z,15.51
2018-05-08T01:42:33.326Z,15.39
2018-05-08T01:43:33.241Z,15.43
2018-05-08T01:44:33.130Z,15.44
2018-05-08T01:45:33.038Z,15.37
2018-05-08T01:46:32.934Z,15.47
2018-05-08T01:47:32.842Z,15.49
2018-05-08T01:48:32.740Z,15.44
2018-05-08T01:49:32.649Z,15.49
2018-05-08T01:50:32.549Z,15.44
2018-05-08T01:51:32.455Z,15.37
2018-05-08T01:52:32.351Z,15.37
2018-05-08T01:53:32.264Z,15.33
2018-05-08T01:54:32.160Z,15.31
2018-05-08T01:55:32.068Z,15.24
2018-05-08T01:56:31.965Z,15.21
2018-05-08T01:57:31.873Z,15.19
2018-05-08T01:58:31.770Z,15.25
2018-05-08T01:59:31.679Z,15.25
2018-05-08T02:00:31.888Z,15.27
2018-05-08T02:01:31.488Z,15.31
2018-05-08T02:02:31.384Z,15.25
2018-05-08T02:03:31.293Z,15.22
2018-05-08T02:04:31.189Z,15.25
2018-05-08T02:05:31.108Z,15.21
2018-05-08T02:06:31.011Z,15.24
2018-05-08T02:07:30.904Z,15.17
2018-05-08T02:08:30.805Z,15.21
2018-05-08T02:09:30.709Z,15.18
2018-05-08T02:10:30.606Z,15.17
2018-05-08T02:11:30.514Z,15.14
2018-05-08T02:12:30.414Z,15.10
2018-05-08T02:13:30.326Z,15.11
2018-05-08T02:14:30.219Z,15.10
2018-05-08T02:15:30.128Z,15.11
2018-05-08T02:16:30.025Z,15.18
2018-05-08T02:17:29.920Z,15.11
2018-05-08T02:18:29.834Z,15.17
2018-05-08T02:19:29.726Z,14.99
2018-05-08T02:20:29.883Z,15.03
2018-05-08T02:21:29.533Z,15.00
2018-05-08T02:22:29.443Z,15.07
2018-05-08T02:23:29.340Z,14.97
2018-05-08T02:24:29.248Z,14.89
2018-05-08T02:25:29.143Z,14.97
2018-05-08T02:26:29.053Z,15.00
2018-05-08T02:27:28.950Z,14.92
2018-05-08T02:28:28.858Z,14.86
2018-05-08T02:29:28.756Z,14.85
2018-05-08T02:30:28.667Z,14.82
2018-05-08T02:31:28.575Z,14.82
2018-05-08T02:32:28.472Z,14.78
2018-05-08T02:33:28.366Z,14.73
2018-05-08T02:34:28.276Z,14.59
2018-05-08T02:35:28.183Z,14.66
2018-05-08T02:36:28.081Z,14.59
2018-05-08T02:37:27.977Z,14.60
2018-05-08T02:38:27.890Z,14.55
2018-05-08T02:39:27.784Z,14.60
2018-05-08T02:40:27.993Z,14.70
2018-05-08T02:41:27.591Z,14.72
2018-05-08T02:42:27.502Z,14.68
2018-05-08T02:43:27.399Z,14.72
2018-05-08T02:44:27.299Z,14.72
2018-05-08T02:45:27.201Z,14.65
2018-05-08T02:46:27.099Z,14.77
2018-05-08T02:47:27.010Z,14.65
2018-05-08T02:48:26.904Z,14.68
2018-05-08T02:49:26.817Z,14.78
2018-05-08T02:50:26.712Z,14.81
2018-05-08T02:51:26.621Z,14.79
2018-05-08T02:52:26.540Z,14.88
2018-05-08T02:53:26.426Z,14.84
2018-05-08T02:54:26.323Z,14.73
2018-05-08T02:55:26.233Z,14.77
2018-05-08T02:56:26.130Z,14.79
2018-05-08T02:57:26.037Z,14.79
2018-05-08T02:58:25.933Z,14.77
2018-05-08T02:59:25.842Z,14.73
2018-05-08T03:00:25.741Z,14.88
2018-05-08T03:01:25.638Z,14.86
2018-05-08T03:02:25.547Z,14.79
2018-05-08T03:03:25.446Z,14.79
2018-05-08T03:04:25.358Z,14.70
2018-05-08T03:05:25.248Z,14.69
2018-05-08T03:06:25.157Z,14.70
2018-05-08T03:07:25.053Z,14.68
2018-05-08T03:08:24.963Z,14.65
2018-05-08T03:09:24.864Z,14.59
2018-05-08T03:10:24.768Z,14.62
2018-05-08T03:11:24.665Z,14.62
2018-05-08T03:12:24.575Z,14.54
2018-05-08T03:13:24.473Z,14.58
2018-05-08T03:14:24.370Z,14.63
2018-05-08T03:15:24.273Z,14.77
2018-05-08T03:16:24.175Z,14.78
2018-05-08T03:17:24.083Z,14.72
2018-05-08T03:18:23.980Z,14.63
2018-05-08T03:19:23.888Z,14.69
2018-05-08T03:20:24.086Z,14.68
2018-05-08T03:21:23.696Z,14.70
2018-05-08T03:22:23.621Z,14.55
2018-05-08T03:23:23.503Z,14.60
2018-05-08T03:24:23.400Z,14.60
2018-05-08T03:25:23.312Z,14.51
2018-05-08T03:26:23.207Z,14.62
2018-05-08T03:27:23.113Z,14.62
2018-05-08T03:28:23.010Z,14.55
2018-05-08T03:29:22.904Z,14.55
2018-05-08T03:30:23.064Z,14.50
2018-05-08T03:31:22.713Z,14.47
2018-05-08T03:32:22.619Z,14.41
2018-05-08T03:33:22.518Z,14.44
2018-05-08T03:34:22.428Z,14.48
2018-05-08T03:35:22.325Z,14.45
2018-05-08T03:36:22.246Z,14.44
2018-05-08T03:37:22.128Z,14.43
2018-05-08T03:38:22.038Z,14.59
2018-05-08T03:39:21.940Z,14.53
2018-05-08T03:40:21.843Z,14.58
2018-05-08T03:41:21.740Z,14.58
2018-05-08T03:42:21.636Z,14.62
2018-05-08T03:43:21.547Z,14.45
2018-05-08T03:44:21.443Z,14.43
2018-05-08T03:45:21.353Z,14.54
2018-05-08T03:46:21.250Z,14.54
2018-05-08T03:47:21.160Z,14.45
2018-05-08T03:48:21.057Z,14.53
2018-05-08T03:49:20.976Z,14.54
2018-05-08T03:50:20.860Z,14.66
2018-05-08T03:51:20.769Z,14.78
2018-05-08T03:52:20.667Z,14.82
2018-05-08T03:53:20.567Z,14.73
2018-05-08T03:54:20.474Z,14.69
2018-05-08T03:55:20.373Z,14.78
2018-05-08T03:56:20.281Z,14.81
2018-05-08T03:57:20.234Z,14.78
2018-05-08T03:58:20.086Z,14.73
2018-05-08T03:59:19.983Z,14.79
2018-05-08T04:00:19.892Z,14.88
2018-05-08T04:01:19.787Z,14.88
2018-05-08T04:02:19.695Z,14.86
2018-05-08T04:03:19.592Z,14.86
2018-05-08T04:04:19.490Z,14.89
2018-05-08T04:05:19.401Z,14.86
2018-05-08T04:06:19.309Z,14.88
2018-05-08T04:07:19.210Z,14.89
2018-05-08T04:08:19.156Z,14.89
2018-05-08T04:09:19.010Z,14.97
2018-05-08T04:10:18.908Z,15.07
2018-05-08T04:11:18.816Z,15.07
2018-05-08T04:12:18.725Z,15.04
2018-05-08T04:13:18.623Z,15.04
2018-05-08T04:14:18.519Z,14.99
2018-05-08T04:15:18.427Z,15.11
2018-05-08T04:16:18.325Z,15.19
2018-05-08T04:17:18.236Z,15.28
2018-05-08T04:18:18.133Z,15.39
2018-05-08T04:19:18.041Z,15.64
2018-05-08T04:20:18.238Z,15.75
2018-05-08T04:21:17.845Z,15.68
2018-05-08T04:22:17.743Z,15.61
2018-05-08T04:23:17.651Z,15.67
2018-05-08T04:24:17.548Z,15.64
2018-05-08T04:25:17.463Z,15.64
2018-05-08T04:26:17.356Z,15.80
2018-05-08T04:27:17.264Z,15.88
2018-05-08T04:28:17.175Z,16.08
2018-05-08T04:29:17.070Z,16.47
2018-05-08T04:30:16.966Z,17.04
2018-05-08T04:31:16.874Z,17.36
2018-05-08T04:32:16.783Z,17.74
2018-05-08T04:33:16.683Z,18.10
2018-05-08T04:34:16.591Z,18.31
2018-05-08T04:35:16.487Z,18.66
2018-05-08T04:36:16.398Z,18.89
2018-05-08T04:37:16.293Z,18.98
2018-05-08T04:38:16.203Z,18.71
2018-05-08T04:39:16.111Z,19.02
2018-05-08T04:40:16.013Z,19.24
2018-05-08T04:41:15.919Z,18.74
2018-05-08T04:42:15.829Z,18.86
2018-05-08T04:43:15.725Z,18.99
2018-05-08T04:44:15.633Z,18.98
2018-05-08T04:45:15.793Z,19.07
2018-05-08T04:46:15.451Z,19.02
2018-05-08T04:47:15.348Z,19.04
2018-05-08T04:48:15.257Z,19.16
2018-05-08T04:49:15.166Z,19.33
2018-05-08T04:50:15.078Z,19.22
2018-05-08T04:51:14.972Z,19.30
2018-05-08T04:52:14.880Z,19.40
2018-05-08T04:53:14.791Z,19.33
2018-05-08T04:54:14.691Z,19.33
2018-05-08T04:55:14.600Z,19.39
2018-05-08T04:56:14.514Z,19.14
2018-05-08T04:57:14.412Z,19.22
2018-05-08T04:58:14.322Z,19.07
2018-05-08T04:59:14.231Z,19.14
2018-05-08T05:00:14.129Z,19.24
2018-05-08T05:01:14.040Z,19.54
2018-05-08T05:02:13.947Z,19.45
2018-05-08T05:03:13.862Z,19.26
2018-05-08T05:04:13.765Z,19.26
2018-05-08T05:05:13.667Z,19.66
2018-05-08T05:06:13.573Z,19.56
2018-05-08T05:07:13.482Z,19.84
2018-05-08T05:08:13.393Z,19.96
2018-05-08T05:09:13.298Z,19.71
2018-05-08T05:10:13.208Z,19.82
2018-05-08T05:11:13.176Z,19.91
2018-05-08T05:12:13.027Z,20.06
2018-05-08T05:13:12.925Z,20.21
2018-05-08T05:14:12.834Z,20.16
2018-05-08T05:15:12.743Z,20.13
2018-05-08T05:16:12.669Z,20.65
2018-05-08T05:17:12.563Z,20.92
2018-05-08T05:18:12.471Z,21.27
2018-05-08T05:19:12.382Z,21.22
2018-05-08T05:20:12.289Z,21.45
2018-05-08T05:21:12.185Z,21.80
2018-05-08T05:22:12.094Z,22.00
2018-05-08T05:23:12.003Z,21.89
2018-05-08T05:24:11.912Z,22.02
2018-05-08T05:25:11.822Z,22.22
2018-05-08T05:26:11.732Z,22.10
2018-05-08T05:27:11.641Z,21.55
2018-05-08T05:28:11.552Z,21.50
2018-05-08T05:29:11.457Z,21.95
2018-05-08T05:30:11.368Z,21.70
2018-05-08T05:31:11.276Z,21.70
2018-05-08T05:32:11.185Z,21.51
2018-05-08T05:33:11.098Z,22.04
2018-05-08T05:34:11.005Z,21.72
2018-05-08T05:35:10.913Z,21.33
2018-05-08T05:36:10.823Z,21.21
2018-05-08T05:37:10.735Z,21.52
2018-05-08T05:38:10.659Z,21.85
2018-05-08T05:39:10.567Z,21.82
2018-05-08T05:40:10.723Z,22.07
2018-05-08T05:41:10.381Z,22.32
2018-05-08T05:42:10.289Z,22.45
2018-05-08T05:43:10.200Z,22.43
2018-05-08T05:44:10.108Z,22.51
2018-05-08T05:45:10.021Z,22.30
2018-05-08T05:46:09.929Z,22.13
2018-05-08T05:47:09.856Z,21.85
2018-05-08T05:48:09.747Z,22.13
2018-05-08T05:49:09.658Z,22.10
2018-05-08T05:50:09.567Z,22.68
2018-05-08T05:51:09.487Z,22.75
2018-05-08T05:52:09.400Z,22.78
2018-05-08T05:53:09.304Z,23.02
2018-05-08T05:54:09.213Z,23.10
2018-05-08T05:55:09.123Z,23.13
2018-05-08T05:56:09.032Z,23.68
2018-05-08T05:57:08.940Z,23.23
2018-05-08T05:58:08.850Z,22.85
2018-05-08T05:59:08.772Z,23.13
2018-05-08T06:00:08.997Z,22.75
2018-05-08T06:01:08.591Z,22.70
2018-05-08T06:02:08.498Z,22.66
2018-05-08T06:03:08.484Z,22.38
2018-05-08T06:04:08.317Z,22.48
2018-05-08T06:05:08.238Z,22.66
2018-05-08T06:06:08.149Z,23.12
2018-05-08T06:07:08.062Z,22.81
2018-05-08T06:08:07.966Z,23.00
2018-05-08T06:09:07.875Z,23.21
2018-05-08T06:10:07.790Z,23.32
2018-05-08T06:11:07.706Z,23.86
2018-05-08T06:12:07.614Z,24.13
2018-05-08T06:13:07.526Z,23.96
2018-05-08T06:14:07.433Z,23.93
2018-05-08T06:15:07.343Z,23.66
2018-05-08T06:16:07.253Z,23.28
2018-05-08T06:17:07.174Z,23.15
2018-05-08T06:18:07.084Z,23.48
2018-05-08T06:19:06.991Z,23.05
2018-05-08T06:20:07.151Z,22.98
2018-05-08T06:21:06.827Z,22.99
2018-05-08T06:22:06.731Z,23.18
2018-05-08T06:23:06.642Z,23.21
2018-05-08T06:24:06.550Z,23.43
2018-05-08T06:25:06.472Z,23.84
2018-05-08T06:26:06.382Z,24.13
2018-05-08T06:27:06.292Z,24.32
2018-05-08T06:28:06.201Z,24.11
2018-05-08T06:29:06.110Z,23.92
2018-05-08T06:30:06.031Z,23.51
2018-05-08T06:31:05.940Z,23.68
2018-05-08T06:32:05.850Z,24.11
2018-05-08T06:33:05.759Z,24.23
2018-05-08T06:34:05.680Z,24.32
2018-05-08T06:35:05.604Z,24.53
2018-05-08T06:36:05.498Z,24.81
2018-05-08T06:37:05.419Z,25.17
2018-05-08T06:38:05.329Z,25.72
2018-05-08T06:39:05.240Z,25.87
2018-05-08T06:40:05.155Z,25.63
2018-05-08T06:41:05.068Z,25.59
2018-05-08T06:42:04.979Z,25.13
2018-05-08T06:43:04.888Z,24.86
2018-05-08T06:44:04.818Z,24.53
2018-05-08T06:45:04.719Z,24.51
2018-05-08T06:46:04.628Z,24.73
2018-05-08T06:47:04.549Z,25.22
2018-05-08T06:48:04.460Z,25.28
2018-05-08T06:49:04.368Z,25.50
2018-05-08T06:50:04.289Z,25.22
2018-05-08T06:51:04.199Z,25.23
2018-05-08T06:52:04.109Z,25.51
2018-05-08T06:53:04.029Z,25.65
2018-05-08T06:54:03.940Z,25.50
2018-05-08T06:55:03.849Z,25.83
2018-05-08T06:56:03.769Z,26.03
2018-05-08T06:57:03.679Z,26.51
2018-05-08T06:58:03.603Z,26.56
2018-05-08T06:59:03.509Z,26.26
2018-05-08T07:00:03.420Z,25.95
2018-05-08T07:01:03.346Z,26.05
2018-05-08T07:02:03.250Z,25.93
2018-05-08T07:03:03.171Z,26.09
2018-05-08T07:04:03.081Z,26.22
2018-05-08T07:05:02.990Z,26.44
2018-05-08T07:06:02.924Z,26.55
2018-05-08T07:07:02.821Z,26.38
2018-05-08T07:08:02.743Z,26.28
2018-05-08T07:09:02.692Z,26.15
2018-05-08T07:10:02.587Z,26.19
2018-05-08T07:11:02.484Z,26.16
2018-05-08T07:12:02.393Z,26.25
2018-05-08T07:13:02.312Z,26.41
2018-05-08T07:14:02.222Z,26.68
2018-05-08T07:15:02.144Z,27.25
2018-05-08T07:16:02.181Z,27.26
2018-05-08T07:17:01.975Z,26.84
2018-05-08T07:18:01.886Z,27.48
2018-05-08T07:19:01.810Z,27.78
2018-05-08T07:20:01.717Z,27.49
2018-05-08T07:21:01.636Z,27.07
2018-05-08T07:22:01.546Z,26.56
2018-05-08T07:23:01.468Z,26.53
2018-05-08T07:24:01.395Z,27.03
2018-05-08T07:25:01.299Z,27.32
2018-05-08T07:26:01.211Z,27.51
2018-05-08T07:27:01.130Z,27.21
2018-05-08T07:28:01.038Z,27.54
2018-05-08T07:29:00.959Z,27.90
2018-05-08T07:30:00.894Z,28.30
2018-05-08T07:31:00.835Z,28.79
2018-05-08T07:32:00.701Z,28.76
2018-05-08T07:33:00.621Z,28.44
2018-05-08T07:34:00.548Z,28.30
2018-05-08T07:35:00.457Z,27.21
2018-05-08T07:36:00.378Z,27.60
2018-05-08T07:37:00.283Z,28.11
2018-05-08T07:38:00.219Z,27.37
2018-05-08T07:39:00.122Z,27.42
2018-05-08T07:40:00.037Z,27.26
2018-05-08T07:40:59.947Z,27.18
2018-05-08T07:41:59.867Z,27.68
2018-05-08T07:42:59.789Z,27.74
2018-05-08T07:43:59.700Z,27.98
2018-05-08T07:44:59.622Z,27.75
2018-05-08T07:45:59.528Z,27.92
2018-05-08T07:46:59.450Z,27.82
2018-05-08T07:47:59.360Z,27.71
2018-05-08T07:48:59.268Z,27.83
2018-05-08T07:49:59.190Z,27.67
2018-05-08T07:50:59.100Z,27.22
2018-05-08T07:51:59.010Z,26.85
2018-05-08T07:52:58.930Z,26.59
2018-05-08T07:53:58.840Z,26.51
2018-05-08T07:54:58.761Z,26.22
2018-05-08T07:55:58.670Z,25.65
2018-05-08T07:56:58.580Z,25.28
2018-05-08T07:57:58.502Z,25.14
2018-05-08T07:58:58.410Z,24.76
2018-05-08T07:59:58.321Z,24.32
2018-05-08T08:00:58.230Z,23.66
2018-05-08T08:01:58.144Z,23.47
2018-05-08T08:02:58.063Z,23.24
2018-05-08T08:03:57.968Z,23.21
2018-05-08T08:04:57.879Z,23.36
2018-05-08T08:05:57.800Z,23.28
2018-05-08T08:06:57.697Z,23.24
2018-05-08T08:07:57.605Z,23.21
2018-05-08T08:08:57.526Z,23.24
2018-05-08T08:09:57.437Z,23.17
2018-05-08T08:10:57.345Z,22.99
2018-05-08T08:11:57.254Z,22.81
2018-05-08T08:12:57.163Z,22.90
2018-05-08T08:13:57.073Z,22.94
2018-05-08T08:14:56.983Z,23.05
2018-05-08T08:15:56.892Z,23.06
2018-05-08T08:16:56.802Z,22.91
2018-05-08T08:17:56.721Z,22.81
2018-05-08T08:18:56.632Z,22.87
2018-05-08T08:19:56.803Z,22.78
2018-05-08T08:20:56.451Z,22.85
2018-05-08T08:21:56.358Z,23.02
2018-05-08T08:22:56.269Z,23.21
2018-05-08T08:23:56.285Z,23.41
2018-05-08T08:24:56.087Z,23.73
2018-05-08T08:25:55.996Z,23.74
2018-05-08T08:26:55.905Z,23.81
2018-05-08T08:27:55.814Z,23.96
2018-05-08T08:28:55.725Z,24.16
2018-05-08T08:29:55.632Z,23.98
2018-05-08T08:30:55.543Z,24.03
2018-05-08T08:31:55.464Z,24.23
2018-05-08T08:32:55.361Z,24.35
2018-05-08T08:33:55.273Z,24.06
2018-05-08T08:34:55.182Z,24.16
2018-05-08T08:35:55.104Z,24.51
2018-05-08T08:36:54.998Z,24.51
2018-05-08T08:37:54.907Z,24.54
2018-05-08T08:38:54.817Z,24.80
2018-05-08T08:39:54.725Z,25.29
2018-05-08T08:40:54.669Z,25.58
2018-05-08T08:41:54.544Z,26.09
2018-05-08T08:42:54.464Z,26.55
2018-05-08T08:43:54.362Z,26.53
2018-05-08T08:44:54.271Z,26.71
2018-05-08T08:45:54.180Z,26.77
2018-05-08T08:46:54.090Z,26.81
2018-05-08T08:47:54.077Z,26.97
2018-05-08T08:48:53.908Z,27.74
2018-05-08T08:49:53.816Z,28.67
2018-05-08T08:50:53.730Z,28.20
2018-05-08T08:51:53.635Z,28.10
2018-05-08T08:52:53.545Z,28.62
2018-05-08T08:53:53.455Z,28.59
2018-05-08T08:54:53.364Z,28.08
2018-05-08T08:55:53.272Z,27.64
2018-05-08T08:56:53.182Z,27.92
2018-05-08T08:57:53.107Z,28.29
2018-05-08T08:58:53.012Z,28.29
2018-05-08T08:59:52.922Z,28.29
2018-05-08T09:00:52.832Z,28.35
2018-05-08T09:01:52.745Z,28.23
2018-05-08T09:02:52.663Z,27.77
2018-05-08T09:03:52.572Z,28.00
2018-05-08T09:04:52.481Z,27.92
2018-05-08T09:05:52.403Z,28.11
2018-05-08T09:06:52.313Z,28.35
2018-05-08T09:07:52.221Z,28.85
2018-05-08T09:08:52.142Z,28.84
2018-05-08T09:09:52.054Z,29.13
2018-05-08T09:10:51.975Z,29.35
2018-05-08T09:11:51.883Z,29.88
2018-05-08T09:12:51.809Z,29.65
2018-05-08T09:13:51.712Z,28.98
2018-05-08T09:14:51.652Z,29.19
2018-05-08T09:15:51.545Z,29.35
2018-05-08T09:16:51.466Z,29.45
2018-05-08T09:17:51.376Z,29.12
2018-05-08T09:18:51.296Z,29.13
2018-05-08T09:19:51.324Z,28.62
2018-05-08T09:20:51.128Z,28.72
2018-05-08T09:21:51.050Z,28.82
2018-05-08T09:22:50.974Z,29.14
2018-05-08T09:23:50.880Z,28.72
2018-05-08T09:24:50.804Z,28.15
2018-05-08T09:25:50.723Z,28.00
2018-05-08T09:26:50.634Z,28.10
2018-05-08T09:27:50.555Z,28.63
2018-05-08T09:28:50.476Z,28.96
2018-05-08T09:29:50.384Z,28.88
2018-05-08T09:30:50.311Z,28.94
2018-05-08T09:31:50.230Z,29.49
2018-05-08T09:32:50.206Z,29.91
2018-05-08T09:33:50.059Z,28.62
2018-05-08T09:34:49.981Z,28.74
2018-05-08T09:35:49.905Z,28.70
2018-05-08T09:36:49.813Z,29.05
2018-05-08T09:37:49.733Z,28.88
2018-05-08T09:38:49.655Z,29.35
2018-05-08T09:39:49.576Z,29.29
2018-05-08T09:40:49.502Z,28.63
2018-05-08T09:41:49.409Z,28.96
2018-05-08T09:42:49.330Z,28.51
2018-05-08T09:43:49.252Z,28.14
2018-05-08T09:44:49.177Z,28.19
2018-05-08T09:45:49.083Z,28.04
2018-05-08T09:46:49.003Z,27.90
2018-05-08T09:47:48.928Z,27.77
2018-05-08T09:48:48.861Z,28.02
2018-05-08T09:49:48.769Z,27.63
2018-05-08T09:50:48.678Z,27.63
2018-05-08T09:51:48.601Z,28.11
2018-05-08T09:52:48.522Z,28.14
2018-05-08T09:53:48.443Z,27.98
2018-05-08T09:54:48.352Z,28.17
2018-05-08T09:55:48.274Z,28.14
2018-05-08T09:56:48.195Z,27.86
2018-05-08T09:57:48.122Z,27.86
2018-05-08T09:58:48.027Z,28.20
2018-05-08T09:59:47.950Z,28.70
2018-05-08T10:00:47.876Z,28.57
2018-05-08T10:01:47.791Z,27.92
2018-05-08T10:02:47.701Z,27.96
2018-05-08T10:03:47.622Z,28.26
2018-05-08T10:04:47.544Z,28.19
2018-05-08T10:05:47.495Z,28.27
2018-05-08T10:06:47.413Z,28.70
2018-05-08T10:07:47.297Z,27.96
2018-05-08T10:08:47.218Z,28.26
2018-05-08T10:09:47.140Z,28.15
2018-05-08T10:10:47.050Z,28.41
2018-05-08T10:11:46.971Z,28.84
2018-05-08T10:12:46.893Z,29.01
2018-05-08T10:13:46.827Z,29.19
2018-05-08T10:14:46.736Z,28.88
2018-05-08T10:15:46.647Z,28.27
2018-05-08T10:16:46.567Z,28.02
2018-05-08T10:17:46.488Z,27.63
2018-05-08T10:18:46.477Z,27.95
2018-05-08T10:19:46.333Z,28.20
2018-05-08T10:20:46.325Z,28.35
2018-05-08T10:21:46.167Z,28.64
2018-05-08T10:22:46.084Z,28.76
2018-05-08T10:23:46.012Z,28.51
2018-05-08T10:24:45.927Z,28.97
2018-05-08T10:25:45.849Z,29.24
2018-05-08T10:26:45.780Z,28.74
2018-05-08T10:27:45.695Z,28.32
2018-05-08T10:28:45.614Z,28.54
2018-05-08T10:29:45.538Z,28.76
2018-05-08T10:30:45.458Z,28.67
2018-05-08T10:31:45.369Z,28.75
2018-05-08T10:32:45.290Z,28.75
2018-05-08T10:33:45.211Z,29.12
2018-05-08T10:34:45.133Z,29.68
2018-05-08T10:35:45.055Z,29.73
2018-05-08T10:36:44.978Z,29.08
2018-05-08T10:37:44.898Z,28.81
2018-05-08T10:38:44.819Z,28.74
2018-05-08T10:39:44.742Z,28.60
2018-05-08T10:40:44.663Z,28.54
2018-05-08T10:41:44.584Z,28.74
2018-05-08T10:42:44.577Z,29.13
2018-05-08T10:43:44.431Z,29.42
2018-05-08T10:44:44.348Z,29.51
2018-05-08T10:45:44.271Z,30.02
2018-05-08T10:46:44.195Z,29.71
2018-05-08T10:47:44.103Z,29.50
2018-05-08T10:48:44.024Z,30.00
2018-05-08T10:49:43.946Z,29.69
2018-05-08T10:50:43.867Z,29.98
2018-05-08T10:51:43.790Z,30.37
2018-05-08T10:52:43.710Z,30.12
2018-05-08T10:53:43.644Z,29.69
2018-05-08T10:54:43.553Z,29.44
2018-05-08T10:55:43.502Z,29.45
2018-05-08T10:56:43.396Z,28.98
2018-05-08T10:57:43.406Z,28.84
2018-05-08T10:58:43.240Z,29.01
2018-05-08T10:59:43.161Z,28.89
2018-05-08T11:00:43.082Z,29.10
2018-05-08T11:01:43.060Z,29.45
2018-05-08T11:02:42.926Z,29.71
2018-05-08T11:03:42.849Z,29.97
2018-05-08T11:04:42.760Z,29.75
2018-05-08T11:05:42.680Z,29.90
2018-05-08T11:06:42.609Z,30.18
2018-05-08T11:07:42.523Z,30.39
2018-05-08T11:08:42.445Z,30.70
2018-05-08T11:09:42.366Z,30.27
2018-05-08T11:10:42.291Z,29.68
2018-05-08T11:11:42.209Z,29.73
2018-05-08T11:12:42.135Z,29.20
2018-05-08T11:13:42.041Z,28.49
2018-05-08T11:14:41.962Z,28.52
2018-05-08T11:15:41.884Z,28.05
2018-05-08T11:16:41.805Z,28.33
2018-05-08T11:17:41.727Z,28.29
2018-05-08T11:18:41.648Z,27.74
2018-05-08T11:19:41.580Z,27.54
2018-05-08T11:20:41.495Z,27.54
2018-05-08T11:21:41.402Z,27.65
2018-05-08T11:22:41.322Z,27.78
2018-05-08T11:23:41.245Z,27.49
2018-05-08T11:24:41.172Z,27.21
2018-05-08T11:25:41.092Z,26.71
2018-05-08T11:26:41.129Z,26.02
2018-05-08T11:27:40.919Z,25.78
2018-05-08T11:28:40.844Z,25.53
2018-05-08T11:29:40.761Z,25.65
2018-05-08T11:30:40.697Z,25.84
2018-05-08T11:31:40.593Z,25.84
2018-05-08T11:32:40.515Z,25.93
2018-05-08T11:33:40.430Z,25.75
2018-05-08T11:34:40.344Z,25.62
2018-05-08T11:35:40.259Z,25.65
2018-05-08T11:36:40.177Z,25.85
2018-05-08T11:37:40.087Z,25.98
2018-05-08T11:38:40.010Z,26.07
2018-05-08T11:39:39.917Z,25.85
2018-05-08T11:40:39.839Z,25.91
2018-05-08T11:41:39.747Z,25.85
2018-05-08T11:42:39.668Z,25.80
2018-05-08T11:43:39.579Z,25.85
2018-05-08T11:44:39.548Z,26.00
2018-05-08T11:45:39.429Z,25.81
2018-05-08T11:46:39.319Z,25.81
2018-05-08T11:47:39.228Z,25.65
2018-05-08T11:48:39.148Z,25.50
2018-05-08T11:49:39.066Z,25.53
2018-05-08T11:50:38.968Z,25.53
2018-05-08T11:51:38.890Z,25.40
2018-05-08T11:52:38.798Z,25.31
2018-05-08T11:53:38.707Z,25.28
2018-05-08T11:54:38.617Z,25.46
2018-05-08T11:55:38.538Z,25.47
2018-05-08T11:56:38.447Z,25.47
2018-05-08T11:57:38.359Z,25.68
2018-05-08T11:58:38.266Z,26.00
2018-05-08T11:59:38.189Z,26.18
2018-05-08T12:00:38.098Z,26.05
2018-05-08T12:01:38.005Z,26.40
2018-05-08T12:02:37.963Z,26.52
2018-05-08T12:03:37.823Z,26.62
2018-05-08T12:04:37.735Z,26.59
2018-05-08T12:05:37.655Z,26.16
2018-05-08T12:06:37.564Z,26.05
2018-05-08T12:07:37.478Z,25.83
2018-05-08T12:08:37.396Z,25.62
2018-05-08T12:09:37.304Z,25.66
2018-05-08T12:10:37.214Z,25.75
2018-05-08T12:11:37.136Z,25.73
2018-05-08T12:12:37.045Z,25.88
2018-05-08T12:13:36.954Z,26.03
2018-05-08T12:14:36.883Z,26.06
2018-05-08T12:15:36.785Z,25.88
2018-05-08T12:16:36.706Z,25.65
2018-05-08T12:17:36.616Z,25.63
2018-05-08T12:18:36.537Z,25.77
2018-05-08T12:19:36.446Z,25.75
2018-05-08T12:20:36.357Z,25.63
2018-05-08T12:21:36.278Z,25.46
2018-05-08T12:22:36.186Z,25.48
2018-05-08T12:23:36.096Z,25.38
2018-05-08T12:24:36.018Z,25.48
2018-05-08T12:25:35.986Z,25.58
2018-05-08T12:26:35.838Z,25.53
2018-05-08T12:27:35.765Z,25.63
2018-05-08T12:28:35.666Z,25.95
2018-05-08T12:29:35.576Z,25.83
2018-05-08T12:30:35.522Z,25.60
2018-05-08T12:31:35.406Z,25.58
2018-05-08T12:32:35.319Z,25.50
2018-05-08T12:33:35.225Z,25.65
2018-05-08T12:34:35.242Z,25.68
2018-05-08T12:35:35.056Z,25.62
2018-05-08T12:36:34.967Z,25.73
2018-05-08T12:37:34.878Z,25.58
2018-05-08T12:38:34.797Z,25.68
2018-05-08T12:39:34.705Z,25.73
2018-05-08T12:40:34.615Z,25.91
2018-05-08T12:41:34.524Z,25.91
2018-05-08T12:42:34.433Z,25.70
2018-05-08T12:43:34.355Z,25.81
2018-05-08T12:44:34.262Z,25.81
2018-05-08T12:45:34.177Z,25.55
2018-05-08T12:46:34.081Z,25.51
2018-05-08T12:47:33.993Z,25.54
2018-05-08T12:48:33.914Z,25.40
2018-05-08T12:49:33.821Z,25.31
2018-05-08T12:50:33.755Z,25.38
2018-05-08T12:51:33.642Z,25.51